Airfield :
LOGIN :

Register | Disclaimer

   EN    FR    IT 

 










Legend :    VFR   Marginal VFR   IFR   Intensive IFR   Very Intensive IFR
Visi :
Ceiling :
>= 8 km
>= 3000ft
5 to 8 km
1000 to 3000 ft
1500m to 5 km
500 to 1000 ft
800 to 1500m
200 to 500 ft
< 800m
< 200 ft
Symbols :   Thunderstorms  Fog  Heavy snow  Heavy precipitations  Wind > 20 kt
SIGMETs :     Misc.  Thunderstorms  Icing  Turbulence  Mountain Waves  Volcanic Ashes






- Airport Elevation : 1187 ft


LIBV - Gioia del Colle Bari

CURRENT METAR :
  • 191255Z 03010KT 9999 SCT040 28/17 Q1013 RMK BKN BKN060 VIS MIN 9999 WIND THR32 09005KT WIND THR14 08009KT BLU

EXPIRED METARs :
  • 191155Z 01006KT CAVOK 30/15 Q1013 RMK SCT SCT070 VIS MIN 9999 WIND THR32 24005KT WIND THR14 35005KT BLU
  • 191055Z 28007KT CAVOK 30/12 Q1014 RMK FEW FEW100 VIS MIN 9999 WIND THR32 28008KT WIND THR14 28007KT BLU
  • 190955Z 28007KT CAVOK 29/13 Q1014 RMK SKC VIS MIN 9999 WIND THR32 24007KT WIND THR14 24006KT BLU

TAF TAF LIBV
Valid from the 19 at 12:00 until the 19 at 21:00 UTC


191100Z 1912/1921 24008KT CAVOK
TEMPO 1912/1915 9999 SCT030



MET'MAP, your aeronautical weather chart ! - Copyright ORBIFLY December 2007 - Disclaimer

ORBIFLY MET'MAP TEAM :

Programming & Development : Alexandra Zaïnal
Concept & original design : Baudouin d'Aumeries
Assistance for programming : Marc-Olivier Méhu
Technical & hardware support : Manuel Goepfert

Contact : metmap@orbifly.com




SOURCES & CREDITS :

   NOAA